Time;durP1;ratioP1;P1;durP2;ratioP2;P2;SDS_P1;SDS_P2;PMS_P1;PMS_P2;Temp;Humidity;BMP_temperature;BMP_pressure;BME280_temperature;BME280_humidity;BME280_pressure;Samples;Min_cycle;Max_cycle;Signal;HPM_P1;HPM_P2
2022/03/05 00:02:23;;;;;;;;;;;6.00;99.90;;;;;;6143199;23;19920;-92
2022/03/05 00:07:46;;;;;;;;;;;5.60;99.90;;;;;;6143500;23;19967;-92
2022/03/05 00:10:14;;;;;;;;;;;6.00;99.90;;;;;;6171097;23;19944;-93
2022/03/05 00:13:05;;;;;;;;;;;7.40;99.90;;;;;;6171915;23;19935;-93
2022/03/05 00:18:48;;;;;;;;;;;5.70;99.90;;;;;;6080395;23;20436;-94
2022/03/05 00:21:31;;;;;;;;;;;5.80;99.90;;;;;;6082856;23;19921;-93
2022/03/05 00:24:11;;;;;;;;;;;6.10;99.90;;;;;;6058886;23;20349;-94
2022/03/05 00:27:12;;;;;;;;;;;3.60;99.90;;;;;;6092129;23;19935;-93
2022/03/05 00:29:41;;;;;;;;;;;5.80;99.90;;;;;;6168714;23;20259;-91
2022/03/05 00:35:11;;;;;;;;;;;6.20;99.90;;;;;;6168680;23;19921;-92
2022/03/05 00:37:45;;;;;;;;;;;6.50;99.90;;;;;;6171195;23;19925;-92
2022/03/05 00:40:17;;;;;;;;;;;6.10;99.90;;;;;;6174103;23;19920;-93
2022/03/05 00:43:05;;;;;;;;;;;4.90;99.90;;;;;;6170792;23;19921;-92
2022/03/05 00:45:36;;;;;;;;;;;6.20;99.90;;;;;;6170648;23;19924;-93
2022/03/05 00:48:10;;;;;;;;;;;7.30;99.90;;;;;;6171232;23;19920;-93
2022/03/05 00:50:48;;;;;;;;;;;5.90;99.90;;;;;;6171570;23;19932;-93
2022/03/05 00:53:38;;;;;;;;;;;5.80;99.90;;;;;;6163804;23;19960;-93
2022/03/05 00:56:14;;;;;;;;;;;5.80;99.90;;;;;;6142494;23;19921;-93
2022/03/05 00:58:43;;;;;;;;;;;7.30;99.90;;;;;;6116496;23;19945;-93
2022/03/05 01:01:33;;;;;;;;;;;5.80;99.90;;;;;;6141779;23;19921;-93
2022/03/05 01:04:16;;;;;;;;;;;6.10;99.90;;;;;;6141521;23;19921;-93
2022/03/05 01:09:40;;;;;;;;;;;6.00;99.90;;;;;;6142301;23;19930;-93
2022/03/05 01:12:22;;;;;;;;;;;6.10;99.90;;;;;;6142222;23;19944;-93
2022/03/05 01:18:02;;;;;;;;;;;;;;;;;;;;;
2022/03/05 01:20:37;;;;;;;;;;;5.60;99.90;;;;;;6142634;23;19931;-93
2022/03/05 01:23:21;;;;;;;;;;;5.90;99.90;;;;;;6143674;23;19921;-92
2022/03/05 01:26:18;;;;;;;;;;;6.60;99.90;;;;;;6141643;23;19921;-93
2022/03/05 01:28:58;;;;;;;;;;;5.40;99.90;;;;;;5968792;24;19948;-93
2022/03/05 01:31:38;;;;;;;;;;;5.50;99.90;;;;;;5969031;24;19971;-92
2022/03/05 01:37:27;;;;;;;;;;;5.20;99.90;;;;;;6108972;23;19932;-93
2022/03/05 01:40:25;;;;;;;;;;;5.80;99.90;;;;;;6142955;23;19921;-91
2022/03/05 01:43:08;;;;;;;;;;;5.10;99.90;;;;;;6142033;23;19928;-91
2022/03/05 01:45:35;;;;;;;;;;;3.90;99.90;;;;;;6142294;23;19925;-92
2022/03/05 01:48:15;;;;;;;;;;;;;;;;;;;;;
2022/03/05 01:51:10;;;;;;;;;;;5.10;99.90;;;;;;6142152;23;19928;-93
2022/03/05 01:53:39;;;;;;;;;;;3.00;99.90;;;;;;6063238;23;19921;-92
2022/03/05 01:56:25;;;;;;;;;;;5.00;99.90;;;;;;6142215;23;20402;-92
2022/03/05 02:04:23;;;;;;;;;;;4.90;99.90;;;;;;6141760;23;20329;-94
2022/03/05 02:06:59;;;;;;;;;;;6.20;99.90;;;;;;6141642;23;19961;-94
2022/03/05 02:09:36;;;;;;;;;;;5.30;99.90;;;;;;6141053;23;19921;-92
2022/03/05 02:12:20;;;;;;;;;;;3.80;99.90;;;;;;6141087;23;19961;-92
2022/03/05 02:15:15;;;;;;;;;;;;;;;;;;;;;
2022/03/05 02:17:46;;;;;;;;;;;4.20;99.90;;;;;;6051665;23;19922;-93
2022/03/05 02:26:37;;;;;;;;;;;5.00;99.90;;;;;;6037892;23;19945;-92
2022/03/05 02:29:22;;;;;;;;;;;5.20;99.90;;;;;;6052691;23;19922;-93
2022/03/05 02:32:08;;;;;;;;;;;;;;;;;;;;;
2022/03/05 02:34:43;;;;;;;;;;;5.20;99.90;;;;;;6051778;23;19926;-91
2022/03/05 02:37:21;;;;;;;;;;;2.30;99.90;;;;;;6081744;23;19951;-92
2022/03/05 02:39:59;;;;;;;;;;;4.90;99.90;;;;;;6140600;23;19921;-92
2022/03/05 02:42:34;;;;;;;;;;;5.50;99.90;;;;;;6140179;23;19921;-92
2022/03/05 02:45:19;;;;;;;;;;;6.70;99.90;;;;;;6141074;23;20305;-92
2022/03/05 02:47:59;;;;;;;;;;;5.00;99.90;;;;;;6141326;23;19920;-93
2022/03/05 02:50:40;;;;;;;;;;;5.20;99.90;;;;;;6140446;23;19999;-92
2022/03/05 02:56:08;;;;;;;;;;;5.00;99.90;;;;;;6111546;23;19921;-93
2022/03/05 02:59:01;;;;;;;;;;;5.10;99.90;;;;;;6111581;23;20412;-92
2022/03/05 03:02:10;;;;;;;;;;;5.50;99.90;;;;;;6112077;23;19921;-92
2022/03/05 03:05:16;;;;;;;;;;;2.80;99.90;;;;;;6112028;23;19921;-93
2022/03/05 03:08:14;;;;;;;;;;;5.70;99.90;;;;;;6111202;23;19945;-92
2022/03/05 03:13:56;;;;;;;;;;;5.40;99.90;;;;;;6097393;23;19921;-92
2022/03/05 03:16:42;;;;;;;;;;;5.50;99.90;;;;;;6111452;23;19937;-92
2022/03/05 03:19:49;;;;;;;;;;;5.60;99.90;;;;;;6093956;23;20349;-93
2022/03/05 03:34:14;;;;;;;;;;;5.80;99.90;;;;;;5977272;23;19948;-93
2022/03/05 03:39:58;;;;;;;;;;;;;;;;;;;;;
2022/03/05 03:42:41;;;;;;;;;;;4.90;99.90;;;;;;5995937;24;19922;-92
2022/03/05 03:45:20;;;;;;;;;;;4.00;99.90;;;;;;5996292;24;19987;-91
2022/03/05 03:48:15;;;;;;;;;;;;;;;;;;;;;
2022/03/05 03:51:08;;;;;;;;;;;;;;;;;;;;;
2022/03/05 03:53:54;;;;;;;;;;;4.80;99.90;;;;;;6112861;23;19927;-92
2022/03/05 03:56:35;;;;;;;;;;;5.50;99.90;;;;;;6111954;23;20269;-92
2022/03/05 03:59:39;;;;;;;;;;;5.40;99.90;;;;;;6112665;23;19922;-93
2022/03/05 04:02:29;;;;;;;;;;;5.30;99.90;;;;;;6112416;23;19922;-93
2022/03/05 04:11:19;;;;;;;;;;;;;;;;;;;;;
2022/03/05 04:14:08;;;;;;;;;;;4.20;99.90;;;;;;6112359;23;19928;-92
2022/03/05 04:19:37;;;;;;;;;;;5.10;99.90;;;;;;6004657;23;19922;-93
2022/03/05 04:22:16;;;;;;;;;;;5.40;99.90;;;;;;6112783;23;19921;-92
2022/03/05 04:24:47;;;;;;;;;;;4.50;99.90;;;;;;6139909;23;20252;-92
2022/03/05 04:27:29;;;;;;;;;;;6.00;99.90;;;;;;6141282;23;19920;-92
2022/03/05 04:30:09;;;;;;;;;;;5.30;99.90;;;;;;6140702;23;19921;-92
2022/03/05 04:32:42;;;;;;;;;;;6.50;99.90;;;;;;6140900;23;19921;-92
2022/03/05 04:35:19;;;;;;;;;;;5.60;99.90;;;;;;6140851;23;19950;-92
2022/03/05 04:38:05;;;;;;;;;;;5.30;99.90;;;;;;6140492;23;19921;-92
2022/03/05 04:40:49;;;;;;;;;;;4.80;99.90;;;;;;6141017;23;19945;-92
2022/03/05 04:43:27;;;;;;;;;;;5.30;99.90;;;;;;6141023;23;19928;-92
2022/03/05 04:46:04;;;;;;;;;;;5.20;99.90;;;;;;6141281;23;19928;-93
2022/03/05 04:51:23;;;;;;;;;;;4.70;99.90;;;;;;6140084;23;19949;-93
2022/03/05 04:54:03;;;;;;;;;;;4.60;99.90;;;;;;6140926;23;19921;-92
2022/03/05 04:57:01;;;;;;;;;;;5.20;99.90;;;;;;6138648;23;19921;-93
2022/03/05 04:59:38;;;;;;;;;;;4.50;99.90;;;;;;6142059;23;19956;-92
2022/03/05 05:02:24;;;;;;;;;;;4.40;99.90;;;;;;6141274;23;19921;-93
2022/03/05 05:05:05;;;;;;;;;;;5.90;99.90;;;;;;6109438;23;19929;-92
2022/03/05 05:07:50;;;;;;;;;;;4.80;99.90;;;;;;6140789;23;19931;-92
2022/03/05 05:10:27;;;;;;;;;;;3.40;99.90;;;;;;6140840;23;19927;-92
2022/03/05 05:13:19;;;;;;;;;;;4.80;99.90;;;;;;6140449;23;19921;-93
2022/03/05 05:16:00;;;;;;;;;;;4.60;99.90;;;;;;6107030;23;19921;-92
2022/03/05 05:18:34;;;;;;;;;;;4.00;99.90;;;;;;6140998;23;19928;-92
2022/03/05 05:21:07;;;;;;;;;;;5.20;99.90;;;;;;6142384;23;19928;-94
2022/03/05 05:23:50;;;;;;;;;;;4.40;99.90;;;;;;6140593;23;19927;-92
2022/03/05 05:26:31;;;;;;;;;;;3.40;99.90;;;;;;6142364;23;19925;-91
2022/03/05 05:34:17;;;;;;;;;;;3.80;99.90;;;;;;6142339;23;19988;-92
2022/03/05 05:37:17;;;;;;;;;;;4.00;99.90;;;;;;6142252;23;19945;-91
2022/03/05 05:40:05;;;;;;;;;;;3.90;99.90;;;;;;6141832;23;19920;-92
2022/03/05 05:43:03;;;;;;;;;;;4.30;99.90;;;;;;6139570;23;19928;-93
2022/03/05 05:45:31;;;;;;;;;;;5.00;99.90;;;;;;6116094;23;19921;-92
2022/03/05 05:51:00;;;;;;;;;;;;;;;;;;;;;
2022/03/05 05:56:38;;;;;;;;;;;4.10;99.90;;;;;;6141330;23;19972;-93
2022/03/05 05:59:09;;;;;;;;;;;5.80;99.90;;;;;;6140186;23;19921;-93
2022/03/05 06:01:44;;;;;;;;;;;4.10;99.90;;;;;;6139473;23;19945;-93
2022/03/05 06:07:04;;;;;;;;;;;4.20;99.90;;;;;;6138520;23;19921;-92
2022/03/05 06:09:43;;;;;;;;;;;3.70;99.90;;;;;;6140677;23;19921;-92
2022/03/05 06:12:28;;;;;;;;;;;3.80;99.90;;;;;;6139954;23;19925;-92
2022/03/05 06:15:00;;;;;;;;;;;5.60;99.90;;;;;;6136376;23;20306;-91
2022/03/05 06:17:29;;;;;;;;;;;3.60;99.90;;;;;;6140547;23;19992;-92
2022/03/05 06:20:01;;;;;;;;;;;4.60;99.90;;;;;;6139569;23;19920;-92
2022/03/05 06:22:30;;;;;;;;;;;3.80;99.90;;;;;;6139978;23;19987;-93
2022/03/05 06:25:03;;;;;;;;;;;3.50;99.90;;;;;;6139262;23;19921;-92
2022/03/05 06:27:39;;;;;;;;;;;3.80;99.90;;;;;;6139636;23;19960;-92
2022/03/05 06:30:09;;;;;;;;;;;3.40;99.90;;;;;;6139274;23;19945;-93
2022/03/05 06:32:36;;;;;;;;;;;3.40;99.90;;;;;;6140920;23;19921;-94
2022/03/05 06:35:08;;;;;;;;;;;5.80;99.90;;;;;;6140680;23;20313;-94
2022/03/05 06:37:48;;;;;;;;;;;2.40;99.90;;;;;;6140569;23;20342;-94
2022/03/05 06:40:19;;;;;;;;;;;3.90;99.90;;;;;;6139888;23;20336;-93
2022/03/05 06:42:55;;;;;;;;;;;5.10;99.90;;;;;;6140146;23;19928;-92
2022/03/05 06:45:32;;;;;;;;;;;3.30;99.90;;;;;;6139937;23;19925;-93
2022/03/05 06:48:01;;;;;;;;;;;3.50;99.90;;;;;;6140064;23;19920;-93
2022/03/05 06:50:29;;;;;;;;;;;3.80;99.90;;;;;;6139846;23;19945;-93
2022/03/05 06:53:06;;;;;;;;;;;;;;;;;;;;;
2022/03/05 06:55:37;;;;;;;;;;;3.40;99.90;;;;;;6140189;23;19927;-91
2022/03/05 06:58:08;;;;;;;;;;;2.40;99.90;;;;;;6141017;23;19945;-92
2022/03/05 07:00:43;;;;;;;;;;;4.10;99.90;;;;;;6140273;23;19921;-92
2022/03/05 07:03:14;;;;;;;;;;;3.40;99.90;;;;;;6140489;23;19941;-92
2022/03/05 07:05:43;;;;;;;;;;;3.60;99.90;;;;;;6114419;23;19921;-93
2022/03/05 07:08:12;;;;;;;;;;;3.30;99.90;;;;;;6139619;23;19931;-91
2022/03/05 07:10:47;;;;;;;;;;;3.30;99.90;;;;;;6140150;23;20476;-92
2022/03/05 07:13:18;;;;;;;;;;;3.50;99.90;;;;;;6140032;23;20253;-92
2022/03/05 07:15:47;;;;;;;;;;;3.50;99.90;;;;;;6140637;23;19921;-92
2022/03/05 07:18:20;;;;;;;;;;;3.80;99.90;;;;;;6140145;23;19921;-91
2022/03/05 07:20:49;;;;;;;;;;;3.80;99.90;;;;;;6139597;23;19968;-92
2022/03/05 07:23:18;;;;;;;;;;;3.50;99.90;;;;;;6140109;23;19921;-92
2022/03/05 07:25:47;;;;;;;;;;;3.50;99.90;;;;;;6140094;23;19936;-92
2022/03/05 07:28:18;;;;;;;;;;;3.10;99.90;;;;;;6138808;23;19921;-92
2022/03/05 07:30:48;;;;;;;;;;;5.80;99.90;;;;;;6139367;23;19969;-91
2022/03/05 07:33:16;;;;;;;;;;;3.40;99.90;;;;;;6138891;23;19931;-92
2022/03/05 07:35:43;;;;;;;;;;;5.80;99.90;;;;;;6139933;23;19921;-92
2022/03/05 07:38:13;;;;;;;;;;;4.30;99.90;;;;;;6139743;23;19928;-90
2022/03/05 07:40:41;;;;;;;;;;;4.00;99.90;;;;;;6140299;23;19921;-92
2022/03/05 07:43:12;;;;;;;;;;;4.00;99.90;;;;;;6139766;23;19944;-92
2022/03/05 07:45:51;;;;;;;;;;;3.80;99.90;;;;;;6138037;23;19928;-93
2022/03/05 07:48:22;;;;;;;;;;;2.50;99.90;;;;;;6139218;23;19984;-91
2022/03/05 07:50:52;;;;;;;;;;;3.50;99.90;;;;;;6139823;23;19925;-90
2022/03/05 07:53:38;;;;;;;;;;;2.90;99.90;;;;;;6139413;23;19952;-91
2022/03/05 07:56:07;;;;;;;;;;;3.90;99.90;;;;;;6139454;23;19925;-92
2022/03/05 07:58:34;;;;;;;;;;;5.20;99.90;;;;;;6140213;23;19964;-92
2022/03/05 08:01:04;;;;;;;;;;;3.80;99.90;;;;;;6139852;23;19921;-92
2022/03/05 08:03:31;;;;;;;;;;;4.10;99.90;;;;;;6114617;23;19952;-92
2022/03/05 08:05:58;;;;;;;;;;;5.90;99.90;;;;;;6139919;23;19969;-92
2022/03/05 08:08:27;;;;;;;;;;;4.30;99.90;;;;;;6138991;23;19928;-92
2022/03/05 08:10:59;;;;;;;;;;;4.30;99.90;;;;;;6139515;23;19928;-93
2022/03/05 08:13:29;;;;;;;;;;;4.20;99.90;;;;;;6139150;23;22182;-92
2022/03/05 08:15:57;;;;;;;;;;;4.10;99.90;;;;;;6140460;23;19932;-93
2022/03/05 08:18:26;;;;;;;;;;;4.50;99.90;;;;;;6140264;23;19920;-92
2022/03/05 08:20:56;;;;;;;;;;;4.40;99.90;;;;;;6138937;23;19983;-93
2022/03/05 08:23:23;;;;;;;;;;;4.50;99.90;;;;;;6139451;23;19947;-92
2022/03/05 08:25:58;;;;;;;;;;;4.50;99.90;;;;;;6138310;23;19921;-92
2022/03/05 08:28:27;;;;;;;;;;;5.10;99.90;;;;;;6139780;23;19940;-92
2022/03/05 08:30:57;;;;;;;;;;;4.70;99.90;;;;;;6139966;23;19928;-92
2022/03/05 08:33:26;;;;;;;;;;;5.00;99.90;;;;;;6139419;23;20397;-91
2022/03/05 08:35:53;;;;;;;;;;;3.30;99.90;;;;;;6139310;23;19936;-93
2022/03/05 08:38:23;;;;;;;;;;;6.10;99.90;;;;;;6140590;23;19924;-92
2022/03/05 08:41:01;;;;;;;;;;;5.30;99.90;;;;;;6140162;23;19921;-94
2022/03/05 08:43:32;;;;;;;;;;;5.00;99.90;;;;;;6140468;23;19940;-92
2022/03/05 08:46:02;;;;;;;;;;;5.00;99.90;;;;;;6139454;23;19932;-92
2022/03/05 08:48:45;;;;;;;;;;;5.50;99.90;;;;;;6139349;23;19920;-92
2022/03/05 08:51:13;;;;;;;;;;;6.70;99.90;;;;;;6135217;23;19928;-90
2022/03/05 08:53:56;;;;;;;;;;;5.50;99.90;;;;;;6137965;23;19927;-92
2022/03/05 08:56:23;;;;;;;;;;;5.70;99.90;;;;;;6141291;23;19997;-89
2022/03/05 08:59:22;;;;;;;;;;;5.70;99.90;;;;;;6138413;23;19947;-92
2022/03/05 09:02:08;;;;;;;;;;;;;;;;;;;;;
2022/03/05 09:04:52;;;;;;;;;;;5.60;99.90;;;;;;6139657;23;19927;-93
2022/03/05 09:07:29;;;;;;;;;;;5.80;99.90;;;;;;6140686;23;19937;-92
2022/03/05 09:10:17;;;;;;;;;;;7.50;99.90;;;;;;6142029;23;19925;-92
2022/03/05 09:13:09;;;;;;;;;;;5.90;99.90;;;;;;6141482;23;20316;-92
2022/03/05 09:15:38;;;;;;;;;;;6.00;99.90;;;;;;6129584;23;19929;-90
2022/03/05 09:18:15;;;;;;;;;;;6.10;99.90;;;;;;6141697;23;20019;-92
2022/03/05 09:23:47;;;;;;;;;;;7.10;99.90;;;;;;6075304;23;19944;-93
2022/03/05 09:26:17;;;;;;;;;;;6.00;99.90;;;;;;6140038;23;20285;-90
2022/03/05 09:31:35;;;;;;;;;;;6.50;99.90;;;;;;6138491;23;19925;-92
2022/03/05 09:34:13;;;;;;;;;;;6.90;99.90;;;;;;6142781;23;19921;-92
2022/03/05 09:37:10;;;;;;;;;;;6.40;99.90;;;;;;6140887;23;20017;-92
2022/03/05 09:40:05;;;;;;;;;;;6.00;99.90;;;;;;5995031;24;20575;-91
2022/03/05 09:42:38;;;;;;;;;;;6.60;99.90;;;;;;6120693;23;19921;-92
2022/03/05 09:45:26;;;;;;;;;;;6.20;99.90;;;;;;6142386;23;20304;-94
2022/03/05 09:48:13;;;;;;;;;;;6.60;99.90;;;;;;6140001;23;19921;-92
2022/03/05 09:50:40;;;;;;;;;;;6.80;99.90;;;;;;6143217;23;19944;-91
2022/03/05 09:53:28;;;;;;;;;;;7.10;99.90;;;;;;6143729;23;19949;-92
2022/03/05 09:55:57;;;;;;;;;;;7.10;99.90;;;;;;6120726;23;19921;-91
2022/03/05 10:01:47;;;;;;;;;;;9.10;99.90;;;;;;6129340;23;20004;-91
2022/03/05 10:07:21;;;;;;;;;;;7.80;99.90;;;;;;6137736;23;19944;-92
2022/03/05 10:12:56;;;;;;;;;;;6.90;99.90;;;;;;6121013;23;19943;-92
2022/03/05 10:15:27;;;;;;;;;;;7.40;99.90;;;;;;6140462;23;19921;-91
2022/03/05 10:21:02;;;;;;;;;;;7.40;99.90;;;;;;6138024;23;19928;-93
2022/03/05 10:23:47;;;;;;;;;;;8.90;99.90;;;;;;6136637;23;19920;-92
2022/03/05 10:32:12;;;;;;;;;;;7.30;99.90;;;;;;6126541;23;19932;-91
2022/03/05 10:35:14;;;;;;;;;;;7.10;99.90;;;;;;6139474;23;19917;-94
2022/03/05 10:38:02;;;;;;;;;;;7.90;99.90;;;;;;6139571;23;19927;-93
2022/03/05 10:43:22;;;;;;;;;;;7.60;99.90;;;;;;6137115;23;19932;-92
2022/03/05 10:46:21;;;;;;;;;;;7.80;99.90;;;;;;6140045;23;19928;-93
2022/03/05 10:55:21;;;;;;;;;;;7.00;99.90;;;;;;6071430;23;19925;-92
2022/03/05 11:00:59;;;;;;;;;;;7.50;99.90;;;;;;6146127;23;19921;-92
2022/03/05 11:07:05;;;;;;;;;;;7.50;99.90;;;;;;6145370;23;20026;-91
2022/03/05 11:09:50;;;;;;;;;;;7.40;99.90;;;;;;6134662;23;20277;-92
2022/03/05 11:18:15;;;;;;;;;;;7.70;99.90;;;;;;6136939;23;19924;-90
2022/03/05 11:26:59;;;;;;;;;;;7.30;99.90;;;;;;6047720;23;19921;-92
2022/03/05 11:29:28;;;;;;;;;;;8.40;99.90;;;;;;6051098;23;19996;-89
2022/03/05 11:32:12;;;;;;;;;;;8.40;99.90;;;;;;6073759;23;19961;-90
2022/03/05 11:37:44;;;;;;;;;;;8.40;99.90;;;;;;6018269;23;19922;-91
2022/03/05 11:40:33;;;;;;;;;;;9.20;99.90;;;;;;6077199;23;19922;-90
2022/03/05 11:43:17;;;;;;;;;;;8.80;99.90;;;;;;6076469;23;19990;-91
2022/03/05 11:45:50;;;;;;;;;;;9.00;99.90;;;;;;6077651;23;19928;-90
2022/03/05 11:48:27;;;;;;;;;;;8.80;99.90;;;;;;6071696;23;19937;-85
2022/03/05 11:50:58;;;;;;;;;;;9.10;99.90;;;;;;6069285;23;19929;-85
2022/03/05 11:53:26;;;;;;;;;;;8.70;99.90;;;;;;6069082;23;20279;-85
2022/03/05 11:55:55;;;;;;;;;;;9.10;99.90;;;;;;6069279;23;19922;-86
2022/03/05 11:58:32;;;;;;;;;;;8.90;99.90;;;;;;6068678;23;19969;-85
2022/03/05 12:00:58;;;;;;;;;;;9.40;99.90;;;;;;6069903;23;20481;-86
2022/03/05 12:03:42;;;;;;;;;;;8.80;99.90;;;;;;6069684;23;20406;-85
2022/03/05 12:06:11;;;;;;;;;;;8.80;99.90;;;;;;6069042;23;20080;-84
2022/03/05 12:08:56;;;;;;;;;;;8.90;99.90;;;;;;6070989;23;19933;-86
2022/03/05 12:11:24;;;;;;;;;;;8.80;99.90;;;;;;6070353;23;20364;-86
2022/03/05 12:13:52;;;;;;;;;;;8.70;99.90;;;;;;6054063;23;19936;-85
2022/03/05 12:16:20;;;;;;;;;;;8.70;99.90;;;;;;6065772;23;19929;-86
2022/03/05 12:18:46;;;;;;;;;;;8.80;99.90;;;;;;6069360;23;20361;-87
2022/03/05 12:21:13;;;;;;;;;;;8.70;99.50;;;;;;6069301;23;20350;-87
2022/03/05 12:23:40;;;;;;;;;;;8.70;99.90;;;;;;6076536;23;19978;-88
2022/03/05 12:26:08;;;;;;;;;;;8.60;99.90;;;;;;6084819;23;19945;-86
2022/03/05 12:28:42;;;;;;;;;;;8.70;99.90;;;;;;6139607;23;19921;-90
2022/03/05 12:31:21;;;;;;;;;;;9.40;99.90;;;;;;6138464;23;19928;-91
2022/03/05 12:33:48;;;;;;;;;;;9.20;98.80;;;;;;6140330;23;19997;-89
2022/03/05 12:36:16;;;;;;;;;;;9.20;98.90;;;;;;6132683;23;20000;-89
2022/03/05 12:38:44;;;;;;;;;;;7.90;98.50;;;;;;6134987;23;19931;-90
2022/03/05 12:41:10;;;;;;;;;;;9.40;99.40;;;;;;6133129;23;19921;-90
2022/03/05 12:43:45;;;;;;;;;;;8.90;99.30;;;;;;6133188;23;19925;-88
2022/03/05 12:48:55;;;;;;;;;;;9.20;98.60;;;;;;6139400;23;19961;-91
2022/03/05 12:51:23;;;;;;;;;;;9.50;98.90;;;;;;6136201;23;19921;-90
2022/03/05 12:53:58;;;;;;;;;;;9.00;99.60;;;;;;6133151;23;19975;-92
2022/03/05 12:56:26;;;;;;;;;;;9.30;99.00;;;;;;6134452;23;20398;-89
2022/03/05 12:58:57;;;;;;;;;;;12.00;99.60;;;;;;6131943;23;19928;-91
2022/03/05 13:01:26;;;;;;;;;;;9.40;98.20;;;;;;6132639;23;20388;-90
2022/03/05 13:03:55;;;;;;;;;;;9.30;98.80;;;;;;6132451;23;19921;-89
2022/03/05 13:06:21;;;;;;;;;;;9.70;98.30;;;;;;6133004;23;19921;-91
2022/03/05 13:08:48;;;;;;;;;;;9.40;97.70;;;;;;6132008;23;19924;-91
2022/03/05 13:11:17;;;;;;;;;;;9.50;97.70;;;;;;6131631;23;19928;-91
2022/03/05 13:13:45;;;;;;;;;;;9.90;96.80;;;;;;6133715;23;19928;-90
2022/03/05 13:16:36;;;;;;;;;;;9.50;95.90;;;;;;6136890;23;19921;-89
2022/03/05 13:19:04;;;;;;;;;;;9.40;96.00;;;;;;6134369;23;20352;-90
2022/03/05 13:21:31;;;;;;;;;;;8.90;96.70;;;;;;6136044;23;19996;-90
2022/03/05 13:24:03;;;;;;;;;;;9.70;96.30;;;;;;6137745;23;19924;-90
2022/03/05 13:26:33;;;;;;;;;;;9.90;96.30;;;;;;6136961;23;20248;-90
2022/03/05 13:29:00;;;;;;;;;;;9.40;96.00;;;;;;6135185;23;19924;-91
2022/03/05 13:31:29;;;;;;;;;;;10.10;97.10;;;;;;6135833;23;19991;-93
2022/03/05 13:33:58;;;;;;;;;;;10.00;96.30;;;;;;6140463;23;19921;-91
2022/03/05 13:36:25;;;;;;;;;;;10.90;97.30;;;;;;6134127;23;19921;-91
2022/03/05 13:38:53;;;;;;;;;;;9.50;97.10;;;;;;6133590;23;19921;-91
2022/03/05 13:41:24;;;;;;;;;;;9.40;96.60;;;;;;6136897;23;19941;-91
2022/03/05 13:43:51;;;;;;;;;;;9.50;96.30;;;;;;6132254;23;19921;-91
2022/03/05 13:46:19;;;;;;;;;;;9.10;97.80;;;;;;6133266;23;19925;-87
2022/03/05 13:48:48;;;;;;;;;;;9.20;98.40;;;;;;6107036;23;19925;-90
2022/03/05 13:51:21;;;;;;;;;;;9.50;97.80;;;;;;6134485;23;19928;-89
2022/03/05 13:53:53;;;;;;;;;;;10.70;97.50;;;;;;6135158;23;19946;-91
2022/03/05 13:56:23;;;;;;;;;;;9.30;97.00;;;;;;6135355;23;19921;-91
2022/03/05 13:58:52;;;;;;;;;;;7.70;97.60;;;;;;6138660;23;19921;-89
2022/03/05 14:01:30;;;;;;;;;;;8.90;97.00;;;;;;6135159;23;19992;-91
2022/03/05 14:04:15;;;;;;;;;;;9.60;97.20;;;;;;6135183;23;19992;-92
2022/03/05 14:06:52;;;;;;;;;;;9.10;96.70;;;;;;6138119;23;20337;-91
2022/03/05 14:09:23;;;;;;;;;;;9.20;96.60;;;;;;6136200;23;19921;-90
2022/03/05 14:12:07;;;;;;;;;;;9.50;97.00;;;;;;6137142;23;19921;-92
2022/03/05 14:14:37;;;;;;;;;;;9.20;95.70;;;;;;6135102;23;19921;-91
2022/03/05 14:17:05;;;;;;;;;;;9.30;95.20;;;;;;6134103;23;19924;-89
2022/03/05 14:19:33;;;;;;;;;;;9.50;95.70;;;;;;6132608;23;19994;-90
2022/03/05 14:22:04;;;;;;;;;;;9.20;95.70;;;;;;6132715;23;19920;-90
2022/03/05 14:24:31;;;;;;;;;;;9.10;95.00;;;;;;6133982;23;19921;-90
2022/03/05 14:27:00;;;;;;;;;;;9.20;96.10;;;;;;6133661;23;19921;-90
2022/03/05 14:29:28;;;;;;;;;;;9.40;96.30;;;;;;6136633;23;19944;-90
2022/03/05 14:31:55;;;;;;;;;;;8.90;96.20;;;;;;6131566;23;19920;-90
2022/03/05 14:34:22;;;;;;;;;;;9.50;96.20;;;;;;6133986;23;20304;-91
2022/03/05 14:36:52;;;;;;;;;;;9.50;95.80;;;;;;6131031;23;19921;-91
2022/03/05 14:39:19;;;;;;;;;;;9.50;95.90;;;;;;6133577;23;19991;-91
2022/03/05 14:41:46;;;;;;;;;;;9.40;97.30;;;;;;6131109;23;19921;-90
2022/03/05 14:44:13;;;;;;;;;;;9.40;97.80;;;;;;6133353;23;20237;-90
2022/03/05 14:46:40;;;;;;;;;;;9.20;96.80;;;;;;6133055;23;20003;-91
2022/03/05 14:49:08;;;;;;;;;;;9.20;97.70;;;;;;6133240;23;19928;-91
2022/03/05 14:51:36;;;;;;;;;;;9.50;97.90;;;;;;6131872;23;19921;-90
2022/03/05 14:54:06;;;;;;;;;;;9.50;96.40;;;;;;6138420;23;20337;-90
2022/03/05 14:56:33;;;;;;;;;;;9.50;95.80;;;;;;6133173;23;19932;-91
2022/03/05 14:59:00;;;;;;;;;;;9.90;96.00;;;;;;6132755;23;19932;-91
2022/03/05 15:01:27;;;;;;;;;;;9.70;96.80;;;;;;6130370;23;19992;-89
2022/03/05 15:03:54;;;;;;;;;;;10.20;96.50;;;;;;6132563;23;19928;-90
2022/03/05 15:06:21;;;;;;;;;;;9.70;96.40;;;;;;6136065;23;19992;-89
2022/03/05 15:08:48;;;;;;;;;;;9.60;96.70;;;;;;6131890;23;19921;-90
2022/03/05 15:11:26;;;;;;;;;;;9.40;97.20;;;;;;6133483;23;19921;-91
2022/03/05 15:13:57;;;;;;;;;;;10.10;96.50;;;;;;6132631;23;19963;-91
2022/03/05 15:16:24;;;;;;;;;;;9.30;97.30;;;;;;6131791;23;19920;-89
2022/03/05 15:18:52;;;;;;;;;;;9.20;97.50;;;;;;6131935;23;19927;-90
2022/03/05 15:21:18;;;;;;;;;;;9.20;98.30;;;;;;6135414;23;19920;-89
2022/03/05 15:23:45;;;;;;;;;;;9.10;97.80;;;;;;6133824;23;20026;-88
2022/03/05 15:26:12;;;;;;;;;;;9.10;97.70;;;;;;6132648;23;19921;-91
2022/03/05 15:28:41;;;;;;;;;;;9.40;98.30;;;;;;6134849;23;19999;-88
2022/03/05 15:31:19;;;;;;;;;;;;;;;;;;;;;
2022/03/05 15:33:47;;;;;;;;;;;9.30;97.70;;;;;;6136847;23;19953;-90
2022/03/05 15:36:19;;;;;;;;;;;9.00;97.10;;;;;;6132245;23;19940;-90
2022/03/05 15:38:46;;;;;;;;;;;9.20;95.30;;;;;;6113244;23;19921;-89
2022/03/05 15:41:14;;;;;;;;;;;9.50;96.40;;;;;;6100725;23;20301;-89
2022/03/05 15:43:42;;;;;;;;;;;8.60;96.40;;;;;;6102507;23;20289;-89
2022/03/05 15:46:13;;;;;;;;;;;9.70;95.40;;;;;;6104523;23;19969;-91
2022/03/05 15:48:41;;;;;;;;;;;9.20;95.70;;;;;;6101503;23;19925;-89
2022/03/05 15:51:08;;;;;;;;;;;9.30;96.00;;;;;;6102063;23;19928;-91
2022/03/05 15:53:36;;;;;;;;;;;9.50;95.70;;;;;;6104015;23;19921;-89
2022/03/05 15:56:04;;;;;;;;;;;9.10;96.50;;;;;;6103588;23;19925;-89
2022/03/05 15:58:30;;;;;;;;;;;9.40;96.80;;;;;;6103627;23;19949;-91
2022/03/05 16:01:06;;;;;;;;;;;9.40;96.90;;;;;;6106489;23;19922;-90
2022/03/05 16:03:35;;;;;;;;;;;9.30;96.60;;;;;;6103043;23;20230;-90
2022/03/05 16:06:02;;;;;;;;;;;8.60;97.60;;;;;;6076204;23;19921;-90
2022/03/05 16:08:29;;;;;;;;;;;9.00;98.70;;;;;;6102905;23;19928;-91
2022/03/05 16:10:56;;;;;;;;;;;8.90;98.00;;;;;;6102185;23;20348;-90
2022/03/05 16:13:23;;;;;;;;;;;8.90;98.50;;;;;;6104962;23;19921;-89
2022/03/05 16:15:56;;;;;;;;;;;9.00;98.20;;;;;;6103189;23;19944;-90
2022/03/05 16:18:28;;;;;;;;;;;9.70;98.70;;;;;;6106495;23;19922;-90
2022/03/05 16:20:54;;;;;;;;;;;8.60;99.20;;;;;;6102143;23;20256;-90
2022/03/05 16:23:25;;;;;;;;;;;8.80;99.90;;;;;;6100609;23;19992;-91
2022/03/05 16:25:52;;;;;;;;;;;7.00;99.90;;;;;;6101745;23;19921;-90
2022/03/05 16:28:19;;;;;;;;;;;8.80;99.90;;;;;;6105449;23;19980;-89
2022/03/05 16:30:46;;;;;;;;;;;8.70;99.90;;;;;;6070767;23;19922;-92
2022/03/05 16:33:13;;;;;;;;;;;8.40;99.90;;;;;;6102442;23;19925;-89
2022/03/05 16:35:41;;;;;;;;;;;10.60;99.90;;;;;;6102000;23;19921;-90
2022/03/05 16:38:08;;;;;;;;;;;8.50;99.40;;;;;;6101509;23;19929;-89
2022/03/05 16:40:36;;;;;;;;;;;8.50;99.90;;;;;;6106474;23;20001;-90
2022/03/05 16:43:03;;;;;;;;;;;7.60;99.90;;;;;;6102873;23;19921;-92
2022/03/05 16:45:30;;;;;;;;;;;8.80;99.60;;;;;;6103130;23;19921;-90
2022/03/05 16:47:58;;;;;;;;;;;8.80;98.40;;;;;;6103193;23;19996;-89
2022/03/05 16:50:25;;;;;;;;;;;8.40;96.30;;;;;;6102668;23;19922;-89
2022/03/05 16:52:54;;;;;;;;;;;8.40;97.20;;;;;;6101439;23;19928;-90
2022/03/05 16:55:22;;;;;;;;;;;8.40;96.80;;;;;;6101541;23;19931;-90
2022/03/05 16:57:50;;;;;;;;;;;8.70;98.00;;;;;;6104246;23;20052;-89
2022/03/05 17:00:19;;;;;;;;;;;8.30;98.20;;;;;;6093273;23;19980;-90
2022/03/05 17:02:46;;;;;;;;;;;8.80;97.80;;;;;;6102808;23;20000;-89
2022/03/05 17:05:13;;;;;;;;;;;8.40;98.50;;;;;;6100899;23;19928;-90
2022/03/05 17:07:41;;;;;;;;;;;8.80;98.40;;;;;;6100864;23;20005;-89
2022/03/05 17:10:10;;;;;;;;;;;8.30;99.80;;;;;;6101512;23;19922;-88
2022/03/05 17:12:38;;;;;;;;;;;8.20;99.00;;;;;;6101066;23;19922;-89
2022/03/05 17:15:05;;;;;;;;;;;8.20;99.90;;;;;;6102569;23;20698;-90
2022/03/05 17:17:32;;;;;;;;;;;8.80;99.90;;;;;;6104169;23;19925;-89
2022/03/05 17:19:58;;;;;;;;;;;6.20;99.90;;;;;;6102828;23;20372;-89
2022/03/05 17:22:25;;;;;;;;;;;8.00;99.90;;;;;;6103529;23;19969;-89
2022/03/05 17:24:52;;;;;;;;;;;8.00;99.90;;;;;;6105038;23;19932;-88
2022/03/05 17:27:21;;;;;;;;;;;8.80;99.90;;;;;;6104831;23;20281;-87
2022/03/05 17:29:48;;;;;;;;;;;8.70;99.90;;;;;;6103199;23;19921;-90
2022/03/05 17:32:23;;;;;;;;;;;8.00;99.90;;;;;;6104963;23;19992;-90
2022/03/05 17:34:49;;;;;;;;;;;7.80;99.90;;;;;;6103681;23;19921;-91
2022/03/05 17:37:16;;;;;;;;;;;8.20;99.90;;;;;;6102327;23;19921;-90
2022/03/05 17:39:43;;;;;;;;;;;8.00;99.90;;;;;;6101835;23;19921;-90